createdAt,value
2018-12-01T00:01:34.889Z,99665.13
2018-12-01T00:04:04.484Z,99659.21
2018-12-01T00:06:34.087Z,99660.47
2018-12-01T00:09:03.670Z,99661.31
2018-12-01T00:11:33.308Z,99661.53
2018-12-01T00:14:03.006Z,99661.52
2018-12-01T00:16:32.709Z,99666.03
2018-12-01T00:19:02.329Z,99655.70
2018-12-01T00:21:31.954Z,99659.10
2018-12-01T00:24:01.547Z,99659.10
2018-12-01T00:26:31.563Z,99659.65
2018-12-01T00:29:01.187Z,99660.40
2018-12-01T00:31:30.803Z,99661.48
2018-12-01T00:34:00.430Z,99663.98
2018-12-01T00:36:30.031Z,99663.25
2018-12-01T00:38:59.687Z,99661.26
2018-12-01T00:41:29.321Z,99664.34
2018-12-01T00:43:59.002Z,99662.53
2018-12-01T00:46:28.597Z,99666.13
2018-12-01T00:48:58.232Z,99665.75
2018-12-01T00:51:28.041Z,99664.14
2018-12-01T00:53:57.642Z,99662.50
2018-12-01T00:56:27.325Z,99658.73
2018-12-01T00:58:56.940Z,99659.84
2018-12-01T01:01:26.491Z,99661.09
2018-12-01T01:03:56.554Z,99660.92
2018-12-01T01:06:26.104Z,99667.77
2018-12-01T01:08:55.731Z,99659.85
2018-12-01T01:11:25.367Z,99654.48
2018-12-01T01:13:54.975Z,99656.09
2018-12-01T01:16:24.591Z,99650.52
2018-12-01T01:18:54.330Z,99653.73
2018-12-01T01:21:23.942Z,99655.17
2018-12-01T01:23:53.499Z,99647.62
2018-12-01T01:26:23.092Z,99645.08
2018-12-01T01:28:52.721Z,99636.26
2018-12-01T01:31:22.261Z,99638.54
2018-12-01T01:33:52.007Z,99645.56
2018-12-01T01:36:21.580Z,99634.72
2018-12-01T01:38:51.241Z,99633.46
2018-12-01T01:41:20.945Z,99627.16
2018-12-01T01:43:50.857Z,99628.97
2018-12-01T01:46:20.514Z,99621.39
2018-12-01T01:48:50.169Z,99621.23
2018-12-01T01:51:19.891Z,99617.09
2018-12-01T01:53:49.862Z,99617.59
2018-12-01T01:56:19.603Z,99619.20
2018-12-01T01:58:49.201Z,99614.68
2018-12-01T02:01:18.908Z,99617.17
2018-12-01T02:03:48.529Z,99611.95
2018-12-01T02:06:18.164Z,99607.97
2018-12-01T02:08:47.762Z,99602.69
2018-12-01T02:11:17.344Z,99602.30
2018-12-01T02:13:46.963Z,99604.66
2018-12-01T02:16:16.552Z,99597.97
2018-12-01T02:18:46.116Z,99596.52
2018-12-01T02:21:15.863Z,99590.23
2018-12-01T02:23:45.405Z,99595.61
2018-12-01T02:26:14.927Z,99594.35
2018-12-01T02:28:44.779Z,99587.01
2018-12-01T02:31:14.632Z,99593.86
2018-12-01T02:33:44.275Z,99588.11
2018-12-01T02:36:13.855Z,99590.28
2018-12-01T02:38:43.520Z,99586.52
2018-12-01T02:41:13.562Z,99590.06
2018-12-01T02:43:43.106Z,99588.80
2018-12-01T02:46:26.047Z,99583.07
2018-12-01T02:48:55.605Z,99582.16
2018-12-01T02:51:25.166Z,99580.53
2018-12-01T02:53:54.874Z,99578.55
2018-12-01T02:56:24.442Z,99573.70
2018-12-01T02:58:53.978Z,99573.33
2018-12-01T03:01:23.662Z,99567.97
2018-12-01T03:03:53.292Z,99574.75
2018-12-01T03:06:22.924Z,99574.42
2018-12-01T03:08:52.496Z,99572.05
2018-12-01T03:11:22.037Z,99574.59
2018-12-01T03:13:51.708Z,99578.36
2018-12-01T03:16:21.423Z,99572.25
2018-12-01T03:18:51.124Z,99577.27
2018-12-01T03:21:20.728Z,99567.95
2018-12-01T03:23:50.336Z,99573.51
2018-12-01T03:26:19.916Z,99571.02
2018-12-01T03:28:49.552Z,99573.53
2018-12-01T03:31:19.164Z,99572.09
2018-12-01T03:33:48.845Z,99576.05
2018-12-01T03:36:18.472Z,99569.05
2018-12-01T03:38:48.079Z,99568.47
2018-12-01T03:41:17.675Z,99565.98
2018-12-01T03:43:47.292Z,99559.00
2018-12-01T03:46:16.835Z,99567.08
2018-12-01T03:48:46.392Z,99565.98
2018-12-01T03:51:16.113Z,99565.27
2018-12-01T03:53:45.721Z,99565.77
2018-12-01T03:56:15.337Z,99565.27
2018-12-01T03:58:45.695Z,99567.97
2018-12-01T04:01:16.142Z,99562.91
2018-12-01T04:03:45.707Z,99561.13
2018-12-01T04:06:15.369Z,99565.22
2018-12-01T04:08:44.951Z,99565.94
2018-12-01T04:11:14.585Z,99574.22
2018-12-01T04:13:44.164Z,99575.28
2018-12-01T04:16:13.896Z,99573.12
2018-12-01T04:18:43.474Z,99575.59
2018-12-01T04:21:13.082Z,99575.22
2018-12-01T04:23:42.713Z,99575.59
2018-12-01T04:26:12.271Z,99566.78
2018-12-01T04:28:42.012Z,99570.18
2018-12-01T04:31:11.628Z,99567.31
2018-12-01T04:33:41.338Z,99572.70
2018-12-01T04:36:11.051Z,99573.40
2018-12-01T04:38:40.611Z,99579.70
2018-12-01T04:41:10.183Z,99578.75
2018-12-01T04:43:39.868Z,99570.16
2018-12-01T04:46:09.517Z,99570.86
2018-12-01T04:48:39.092Z,99574.95
2018-12-01T04:51:08.721Z,99579.28
2018-12-01T04:53:38.328Z,99586.64
2018-12-01T04:56:07.903Z,99580.56
2018-12-01T04:58:37.482Z,99579.15
2018-12-01T05:01:07.154Z,99578.64
2018-12-01T05:03:36.746Z,99570.73
2018-12-01T05:06:06.427Z,99571.33
2018-12-01T05:08:36.000Z,99580.46
2018-12-01T05:11:05.835Z,99577.94
2018-12-01T05:13:35.438Z,99574.54
2018-12-01T05:16:05.122Z,99571.78
2018-12-01T05:18:34.801Z,99575.27
2018-12-01T05:21:04.564Z,99572.18
2018-12-01T05:23:34.278Z,99575.42
2018-12-01T05:26:03.871Z,99577.23
2018-12-01T05:28:33.478Z,99583.77
2018-12-01T05:31:03.189Z,99581.81
2018-12-01T05:33:32.821Z,99583.46
2018-12-01T05:36:02.514Z,99580.30
2018-12-01T05:38:32.663Z,99585.16
2018-12-01T05:41:02.327Z,99577.44
2018-12-01T05:43:31.928Z,99575.13
2018-12-01T05:46:01.648Z,99577.67
2018-12-01T05:48:31.263Z,99577.49
2018-12-01T05:51:00.865Z,99581.84
2018-12-01T05:53:30.467Z,99580.09
2018-12-01T05:56:00.086Z,99579.77
2018-12-01T05:58:29.664Z,99571.33
2018-12-01T06:00:59.381Z,99576.38
2018-12-01T06:03:28.932Z,99576.58
2018-12-01T06:05:58.595Z,99575.67
2018-12-01T06:08:28.211Z,99571.91
2018-12-01T06:10:57.813Z,99577.55
2018-12-01T06:13:27.641Z,99575.02
2018-12-01T06:15:57.214Z,99577.37
2018-12-01T06:18:26.919Z,99568.53
2018-12-01T06:20:56.522Z,99568.71
2018-12-01T06:23:26.141Z,99569.98
2018-12-01T06:25:55.847Z,99574.34
2018-12-01T06:28:25.442Z,99581.01
2018-12-01T06:30:55.029Z,99573.80
2018-12-01T06:33:24.662Z,99573.09
2018-12-01T06:35:54.264Z,99582.11
2018-12-01T06:38:23.923Z,99577.59
2018-12-01T06:40:53.493Z,99579.59
2018-12-01T06:43:23.090Z,99585.72
2018-12-01T06:45:52.787Z,99582.29
2018-12-01T06:48:22.502Z,99587.16
2018-12-01T06:50:52.218Z,99586.43
2018-12-01T06:53:22.634Z,99589.13
2018-12-01T06:55:52.312Z,99585.52
2018-12-01T06:58:21.943Z,99583.55
2018-12-01T07:00:51.518Z,99587.86
2018-12-01T07:03:21.171Z,99589.13
2018-12-01T07:05:50.869Z,99590.03
2018-12-01T07:08:20.465Z,99588.20
2018-12-01T07:10:50.284Z,99594.52
2018-12-01T07:13:19.993Z,99590.37
2018-12-01T07:15:49.589Z,99586.41
2018-12-01T07:18:32.506Z,99588.77
2018-12-01T07:21:02.221Z,99588.92
2018-12-01T07:23:31.925Z,99588.59
2018-12-01T07:26:01.595Z,99590.19
2018-12-01T07:28:32.490Z,99582.95
2018-12-01T07:31:02.219Z,99588.34
2018-12-01T07:33:32.494Z,99594.68
2018-12-01T07:36:02.155Z,99593.23
2018-12-01T07:38:32.352Z,99594.83
2018-12-01T07:41:01.939Z,99592.50
2018-12-01T07:43:31.741Z,99592.30
2018-12-01T07:46:01.452Z,99590.67
2018-12-01T07:48:31.107Z,99594.12
2018-12-01T07:51:03.985Z,99596.64
2018-12-01T07:53:40.704Z,99588.16
2018-12-01T07:56:20.438Z,99592.86
2018-12-01T07:58:51.103Z,99588.72
2018-12-01T08:01:31.093Z,99586.52
2018-12-01T08:04:07.141Z,99579.30
2018-12-01T08:06:38.856Z,99578.73
2018-12-01T08:09:13.243Z,99579.98
2018-12-01T08:11:43.449Z,99577.61
2018-12-01T08:14:14.008Z,99586.80
2018-12-01T08:16:44.997Z,99586.62
2018-12-01T08:19:26.143Z,99594.17
2018-12-01T08:21:59.523Z,99601.78
2018-12-01T08:24:39.101Z,99598.64
2018-12-01T08:27:12.268Z,99595.91
2018-12-01T08:29:43.238Z,99600.81
2018-12-01T08:32:21.759Z,99605.36
2018-12-01T08:34:51.400Z,99603.52
2018-12-01T08:37:22.480Z,99604.11
2018-12-01T08:39:55.185Z,99606.13
2018-12-01T08:42:29.292Z,99608.68
2018-12-01T08:45:02.997Z,99603.80
2018-12-01T08:47:36.342Z,99610.44
2018-12-01T08:50:20.223Z,99616.05
2018-12-01T08:52:54.496Z,99612.95
2018-12-01T08:55:32.857Z,99604.09
2018-12-01T08:58:02.393Z,99608.27
2018-12-01T09:00:38.389Z,99609.73
2018-12-01T09:03:14.715Z,99609.67
2018-12-01T09:05:44.376Z,99613.91
2018-12-01T09:08:13.953Z,99609.20
2018-12-01T09:10:43.640Z,99614.45
2018-12-01T09:13:13.343Z,99613.91
2018-12-01T09:15:44.726Z,99614.73
2018-12-01T09:18:14.362Z,99609.86
2018-12-01T09:20:45.538Z,99606.55
2018-12-01T09:23:16.903Z,99610.98
2018-12-01T09:25:48.685Z,99602.15
2018-12-01T09:28:19.697Z,99608.31
2018-12-01T09:30:49.521Z,99610.57
2018-12-01T09:33:19.162Z,99589.55
2018-12-01T09:35:48.810Z,99583.27
2018-12-01T09:38:18.482Z,99587.78
2018-12-01T09:40:48.529Z,99586.30
2018-12-01T09:43:18.239Z,99588.28
2018-12-01T09:45:47.939Z,99588.66
2018-12-01T09:48:17.654Z,99586.95
2018-12-01T09:50:47.463Z,99592.16
2018-12-01T09:53:17.042Z,99588.62
2018-12-01T09:55:47.753Z,99594.27
2018-12-01T09:58:17.389Z,99592.22
2018-12-01T10:00:47.108Z,99594.31
2018-12-01T10:03:16.655Z,99591.80
2018-12-01T10:05:46.425Z,99589.66
2018-12-01T10:08:16.136Z,99583.45
2018-12-01T10:10:46.055Z,99588.16
2018-12-01T10:13:15.976Z,99583.55
2018-12-01T10:15:45.566Z,99590.05
2018-12-01T10:18:15.475Z,99586.92
2018-12-01T10:20:45.852Z,99586.92
2018-12-01T10:23:15.614Z,99578.28
2018-12-01T10:25:45.252Z,99580.46
2018-12-01T10:28:15.134Z,99581.92
2018-12-01T10:30:44.839Z,99571.46
2018-12-01T10:33:14.389Z,99573.25
2018-12-01T10:35:44.107Z,99581.11
2018-12-01T10:38:16.957Z,99577.09
2018-12-01T10:40:47.042Z,99574.94
2018-12-01T10:43:16.861Z,99568.96
2018-12-01T10:45:46.570Z,99566.30
2018-12-01T10:48:16.107Z,99572.77
2018-12-01T10:50:45.866Z,99560.97
2018-12-01T10:53:15.469Z,99562.07
2018-12-01T10:55:45.018Z,99555.38
2018-12-01T10:58:22.372Z,99559.18
2018-12-01T11:00:56.798Z,99558.89
2018-12-01T11:03:32.984Z,99558.21
2018-12-01T11:06:06.696Z,99560.28
2018-12-01T11:08:36.285Z,99555.32
2018-12-01T11:11:05.924Z,99556.69
2018-12-01T11:13:37.923Z,99553.40
2018-12-01T11:16:08.466Z,99556.61
2018-12-01T11:18:38.150Z,99561.80
2018-12-01T11:21:08.182Z,99559.23
2018-12-01T11:23:37.987Z,99559.20
2018-12-01T11:26:07.765Z,99556.47
2018-12-01T11:28:37.555Z,99553.86
2018-12-01T11:31:07.311Z,99553.58
2018-12-01T11:33:37.545Z,99555.20
2018-12-01T11:36:07.178Z,99549.81
2018-12-01T11:38:36.958Z,99554.29
2018-12-01T11:41:07.177Z,99557.11
2018-12-01T11:43:37.032Z,99560.71
2018-12-01T11:46:06.669Z,99557.23
2018-12-01T11:48:36.532Z,99547.95
2018-12-01T11:51:06.432Z,99545.81
2018-12-01T11:53:42.668Z,99549.02
2018-12-01T11:56:12.689Z,99548.11
2018-12-01T11:58:42.403Z,99541.73
2018-12-01T12:01:12.307Z,99540.23
2018-12-01T12:03:41.964Z,99546.84
2018-12-01T12:06:11.589Z,99549.58
2018-12-01T12:08:41.256Z,99542.72
2018-12-01T12:11:11.142Z,99543.58
2018-12-01T12:13:40.891Z,99543.50
2018-12-01T12:16:10.614Z,99544.42
2018-12-01T12:18:40.218Z,99540.56
2018-12-01T12:21:09.980Z,99539.69
2018-12-01T12:23:39.643Z,99542.19
2018-12-01T12:26:09.506Z,99528.39
2018-12-01T12:28:39.151Z,99540.88
2018-12-01T12:31:08.911Z,99544.13
2018-12-01T12:33:38.816Z,99543.31
2018-12-01T12:36:08.428Z,99546.15
2018-12-01T12:38:38.065Z,99546.82
2018-12-01T12:41:07.675Z,99545.13
2018-12-01T12:43:37.303Z,99538.89
2018-12-01T12:46:07.103Z,99538.53
2018-12-01T12:48:36.706Z,99537.38
2018-12-01T12:51:06.372Z,99545.10
2018-12-01T12:53:36.584Z,99541.25
2018-12-01T12:56:06.518Z,99537.29
2018-12-01T12:58:36.219Z,99540.45
2018-12-01T13:01:06.167Z,99538.77
2018-12-01T13:03:35.830Z,99533.84
2018-12-01T13:06:05.793Z,99532.52
2018-12-01T13:08:35.870Z,99531.25
2018-12-01T13:11:05.471Z,99528.31
2018-12-01T13:13:35.032Z,99535.61
2018-12-01T13:16:04.783Z,99532.84
2018-12-01T13:18:34.489Z,99528.87
2018-12-01T13:21:04.090Z,99534.86
2018-12-01T13:23:33.699Z,99543.23
2018-12-01T13:26:03.420Z,99543.24
2018-12-01T13:28:33.063Z,99540.05
2018-12-01T13:31:02.863Z,99546.77
2018-12-01T13:33:32.640Z,99545.28
2018-12-01T13:36:02.350Z,99553.91
2018-12-01T13:38:32.052Z,99551.69
2018-12-01T13:41:01.761Z,99537.09
2018-12-01T13:43:31.471Z,99551.58
2018-12-01T13:46:01.068Z,99547.16
2018-12-01T13:48:30.913Z,99547.11
2018-12-01T13:51:02.595Z,99554.38
2018-12-01T13:53:32.723Z,99559.80
2018-12-01T13:56:09.906Z,99560.91
2018-12-01T13:58:39.752Z,99565.99
2018-12-01T14:01:12.061Z,99569.05
2018-12-01T14:03:42.029Z,99574.98
2018-12-01T14:06:11.945Z,99587.34
2018-12-01T14:08:43.299Z,99581.85
2018-12-01T14:11:13.312Z,99577.28
2018-12-01T14:13:43.024Z,99584.49
2018-12-01T14:16:13.341Z,99588.95
2018-12-01T14:18:43.394Z,99592.27
2018-12-01T14:21:13.673Z,99595.20
2018-12-01T14:23:43.482Z,99580.13
2018-12-01T14:26:13.098Z,99588.09
2018-12-01T14:28:43.306Z,99582.01
2018-12-01T14:31:13.178Z,99585.61
2018-12-01T14:33:42.826Z,99594.76
2018-12-01T14:36:12.642Z,99585.61
2018-12-01T14:38:42.250Z,99592.51
2018-12-01T14:41:11.970Z,99590.33
2018-12-01T14:43:41.632Z,99589.16
2018-12-01T14:46:13.896Z,99589.92
2018-12-01T14:48:43.471Z,99587.69
2018-12-01T14:51:13.140Z,99591.45
2018-12-01T14:53:43.467Z,99598.57
2018-12-01T14:56:13.402Z,99597.70
2018-12-01T14:58:43.012Z,99605.63
2018-12-01T15:01:12.693Z,99603.65
2018-12-01T15:03:42.401Z,99608.21
2018-12-01T15:06:12.108Z,99609.12
2018-12-01T15:08:41.856Z,99608.52
2018-12-01T15:11:11.628Z,99610.34
2018-12-01T15:13:41.291Z,99611.02
2018-12-01T15:16:11.049Z,99615.58
2018-12-01T15:18:40.772Z,99614.98
2018-12-01T15:21:10.660Z,99610.05
2018-12-01T15:23:40.478Z,99614.98
2018-12-01T15:26:10.152Z,99607.16
2018-12-01T15:28:39.991Z,99608.78
2018-12-01T15:31:09.607Z,99609.64
2018-12-01T15:33:39.403Z,99615.48
2018-12-01T15:36:09.221Z,99608.22
2018-12-01T15:38:38.928Z,99610.55
2018-12-01T15:41:08.665Z,99615.94
2018-12-01T15:43:38.558Z,99624.11
2018-12-01T15:46:08.261Z,99621.57
2018-12-01T15:48:38.391Z,99623.00
2018-12-01T15:51:08.188Z,99620.77
2018-12-01T15:53:37.981Z,99613.81
2018-12-01T15:56:07.783Z,99616.35
2018-12-01T15:58:40.502Z,99613.81
2018-12-01T16:01:10.304Z,99623.72
2018-12-01T16:03:39.950Z,99617.86
2018-12-01T16:06:09.772Z,99621.98
2018-12-01T16:08:39.582Z,99615.31
2018-12-01T16:11:09.256Z,99617.10
2018-12-01T16:13:39.032Z,99619.95
2018-12-01T16:16:10.361Z,99618.52
2018-12-01T16:18:41.824Z,99612.93
2018-12-01T16:21:11.648Z,99612.97
2018-12-01T16:23:41.351Z,99613.08
2018-12-01T16:26:11.053Z,99612.33
2018-12-01T16:28:40.717Z,99601.95
2018-12-01T16:31:10.362Z,99608.25
2018-12-01T16:33:40.096Z,99610.43
2018-12-01T16:36:09.997Z,99608.30
2018-12-01T16:38:39.899Z,99611.55
2018-12-01T16:41:17.925Z,99606.20
2018-12-01T16:43:47.667Z,99601.48
2018-12-01T16:46:17.427Z,99595.98
2018-12-01T16:48:47.139Z,99603.41
2018-12-01T16:51:16.948Z,99600.55
2018-12-01T16:53:46.543Z,99600.55
2018-12-01T16:56:16.342Z,99604.48
2018-12-01T16:58:46.068Z,99607.93
2018-12-01T17:01:15.803Z,99598.83
2018-12-01T17:03:45.481Z,99603.36
2018-12-01T17:06:18.169Z,99592.62
2018-12-01T17:08:49.000Z,99590.93
2018-12-01T17:11:18.683Z,99587.84
2018-12-01T17:13:48.314Z,99587.63
2018-12-01T17:16:17.971Z,99588.54
2018-12-01T17:18:47.659Z,99587.78
2018-12-01T17:21:17.552Z,99589.59
2018-12-01T17:23:47.958Z,99584.97
2018-12-01T17:26:17.632Z,99592.17
2018-12-01T17:28:47.390Z,99591.84
2018-12-01T17:31:17.182Z,99597.71
2018-12-01T17:33:46.912Z,99594.20
2018-12-01T17:36:16.589Z,99599.55
2018-12-01T17:38:46.347Z,99591.80
2018-12-01T17:41:26.356Z,99585.59
2018-12-01T17:44:04.368Z,99580.08
2018-12-01T17:46:34.078Z,99581.27
2018-12-01T17:49:03.780Z,99576.97
2018-12-01T17:51:36.687Z,99576.52
2018-12-01T17:54:13.112Z,99575.80
2018-12-01T17:56:42.936Z,99574.88
2018-12-01T17:59:13.272Z,99573.77
2018-12-01T18:01:43.002Z,99577.73
2018-12-01T18:04:12.789Z,99570.70
2018-12-01T18:06:42.485Z,99571.41
2018-12-01T18:09:12.192Z,99576.95
2018-12-01T18:11:41.781Z,99573.86
2018-12-01T18:14:12.563Z,99573.55
2018-12-01T18:16:42.442Z,99567.53
2018-12-01T18:19:12.150Z,99567.44
2018-12-01T18:21:41.939Z,99562.62
2018-12-01T18:24:11.781Z,99565.61
2018-12-01T18:26:41.582Z,99551.81
2018-12-01T18:29:12.529Z,99562.59
2018-12-01T18:31:42.432Z,99556.90
2018-12-01T18:34:14.800Z,99553.09
2018-12-01T18:36:44.694Z,99549.33
2018-12-01T18:39:17.654Z,99549.80
2018-12-01T18:41:47.511Z,99547.47
2018-12-01T18:44:17.305Z,99544.72
2018-12-01T18:46:47.235Z,99542.08
2018-12-01T18:49:17.059Z,99545.69
2018-12-01T18:51:46.750Z,99551.13
2018-12-01T18:54:16.571Z,99542.70
2018-12-01T18:56:46.845Z,99541.53
2018-12-01T18:59:17.111Z,99546.61
2018-12-01T19:01:53.617Z,99543.56
2018-12-01T19:04:23.600Z,99547.41
2018-12-01T19:06:56.476Z,99546.40
2018-12-01T19:09:27.288Z,99541.86
2018-12-01T19:11:57.019Z,99543.89
2018-12-01T19:14:26.720Z,99543.41
2018-12-01T19:16:56.583Z,99547.03
2018-12-01T19:19:26.467Z,99548.48
2018-12-01T19:21:56.393Z,99548.89
2018-12-01T19:24:27.175Z,99549.80
2018-12-01T19:26:56.831Z,99545.44
2018-12-01T19:29:26.513Z,99550.47
2018-12-01T19:31:56.275Z,99545.02
2018-12-01T19:34:30.883Z,99540.45
2018-12-01T19:37:00.650Z,99540.09
2018-12-01T19:39:30.359Z,99542.75
2018-12-01T19:42:00.142Z,99540.56
2018-12-01T19:44:34.352Z,99536.55
2018-12-01T19:47:07.268Z,99531.70
2018-12-01T19:49:43.008Z,99532.91
2018-12-01T19:52:12.718Z,99542.17
2018-12-01T19:54:42.549Z,99533.81
2018-12-01T19:57:13.491Z,99540.77
2018-12-01T19:59:46.258Z,99533.91
2018-12-01T20:02:15.990Z,99525.73
2018-12-01T20:04:45.601Z,99523.58
2018-12-01T20:07:18.381Z,99528.67
2018-12-01T20:09:48.052Z,99530.81
2018-12-01T20:12:17.861Z,99527.67
2018-12-01T20:14:47.443Z,99528.80
2018-12-01T20:17:17.491Z,99535.00
2018-12-01T20:19:47.393Z,99538.54
2018-12-01T20:22:20.182Z,99533.85
2018-12-01T20:24:49.865Z,99537.97
2018-12-01T20:27:20.643Z,99545.59
2018-12-01T20:29:56.468Z,99539.66
2018-12-01T20:32:29.256Z,99542.36
2018-12-01T20:35:00.112Z,99539.17
2018-12-01T20:37:33.512Z,99542.08
2018-12-01T20:40:04.771Z,99546.66
2018-12-01T20:42:34.431Z,99544.50
2018-12-01T20:45:05.395Z,99542.92
2018-12-01T20:47:35.070Z,99540.89
2018-12-01T20:50:08.197Z,99534.11
2018-12-01T20:52:38.933Z,99534.88
2018-12-01T20:55:17.043Z,99534.05
2018-12-01T20:57:57.358Z,99522.97
2018-12-01T21:00:31.502Z,99524.11
2018-12-01T21:03:01.920Z,99530.05
2018-12-01T21:05:31.690Z,99524.88
2018-12-01T21:08:02.471Z,99522.33
2018-12-01T21:10:36.747Z,99521.06
2018-12-01T21:13:07.214Z,99524.25
2018-12-01T21:15:36.978Z,99521.97
2018-12-01T21:18:09.924Z,99524.79
2018-12-01T21:20:39.678Z,99524.03
2018-12-01T21:23:09.331Z,99520.58
2018-12-01T21:25:39.061Z,99518.64
2018-12-01T21:28:08.802Z,99525.16
2018-12-01T21:30:39.450Z,99528.06
2018-12-01T21:33:19.071Z,99523.52
2018-12-01T21:35:49.284Z,99517.52
2018-12-01T21:38:19.335Z,99514.69
2018-12-01T21:40:49.037Z,99512.59
2018-12-01T21:43:21.888Z,99515.34
2018-12-01T21:45:53.888Z,99518.94
2018-12-01T21:48:23.533Z,99514.83
2018-12-01T21:50:57.430Z,99504.87
2018-12-01T21:53:27.604Z,99512.14
2018-12-01T21:55:57.598Z,99512.80
2018-12-01T21:58:27.321Z,99509.61
2018-12-01T22:01:01.885Z,99504.31
2018-12-01T22:03:32.652Z,99511.61
2018-12-01T22:06:07.762Z,99509.32
2018-12-01T22:08:38.402Z,99504.45
2018-12-01T22:11:09.353Z,99491.81
2018-12-01T22:13:40.027Z,99491.60
2018-12-01T22:16:10.577Z,99492.41
2018-12-01T22:18:40.230Z,99494.95
2018-12-01T22:21:10.048Z,99503.55
2018-12-01T22:23:39.759Z,99507.58
2018-12-01T22:26:12.840Z,99508.50
2018-12-01T22:28:42.526Z,99510.06
2018-12-01T22:31:12.250Z,99515.14
2018-12-01T22:33:41.834Z,99507.58
2018-12-01T22:36:11.563Z,99507.80
2018-12-01T22:38:41.463Z,99509.13
2018-12-01T22:41:11.113Z,99504.37
2018-12-01T22:43:41.121Z,99506.52
2018-12-01T22:46:10.702Z,99506.28
2018-12-01T22:48:40.312Z,99514.03
2018-12-01T22:51:10.126Z,99512.97
2018-12-01T22:53:39.829Z,99514.91
2018-12-01T22:56:10.061Z,99510.67
2018-12-01T22:58:39.769Z,99514.19
2018-12-01T23:01:09.578Z,99507.53
2018-12-01T23:03:42.147Z,99500.42
2018-12-01T23:06:11.702Z,99507.66
2018-12-01T23:08:42.193Z,99506.02
2018-12-01T23:11:11.881Z,99502.09
2018-12-01T23:13:49.162Z,99504.11
2018-12-01T23:16:19.178Z,99507.80
2018-12-01T23:18:51.761Z,99496.17
2018-12-01T23:21:21.479Z,99491.78
2018-12-01T23:23:51.107Z,99483.69
2018-12-01T23:26:20.651Z,99484.75
2018-12-01T23:28:50.280Z,99485.52
2018-12-01T23:31:19.999Z,99477.88
2018-12-01T23:33:49.661Z,99480.13
2018-12-01T23:36:19.422Z,99481.89
2018-12-01T23:38:49.032Z,99472.00
2018-12-01T23:41:18.613Z,99468.53
2018-12-01T23:43:48.327Z,99461.38
2018-12-01T23:46:17.938Z,99463.64
2018-12-01T23:48:47.506Z,99462.38
2018-12-01T23:51:17.254Z,99452.23
2018-12-01T23:53:46.803Z,99456.00
2018-12-01T23:56:17.481Z,99453.78
2018-12-01T23:58:47.193Z,99441.30
